createdAt,value
2023-02-08T00:01:09.357Z,13.38
2023-02-08T00:03:37.864Z,16.77
2023-02-08T00:06:07.576Z,14.38
2023-02-08T00:08:39.171Z,13.15
2023-02-08T00:11:10.603Z,18.35
2023-02-08T00:13:42.237Z,13.80
2023-02-08T00:16:12.356Z,12.13
2023-02-08T00:18:42.118Z,14.13
2023-02-08T00:21:11.658Z,12.57
2023-02-08T00:23:39.909Z,15.75
2023-02-08T00:26:08.661Z,13.05
2023-02-08T00:28:36.829Z,12.85
2023-02-08T00:31:06.905Z,12.85
2023-02-08T00:33:36.059Z,12.35
2023-02-08T00:36:06.957Z,12.27
2023-02-08T00:38:35.122Z,12.20
2023-02-08T00:41:03.376Z,14.70
2023-02-08T00:43:31.668Z,14.43
2023-02-08T00:46:01.151Z,14.15
2023-02-08T00:48:31.730Z,13.93
2023-02-08T00:51:02.200Z,14.77
2023-02-08T00:53:30.735Z,13.23
2023-02-08T00:55:58.971Z,13.07
2023-02-08T00:58:27.232Z,12.95
2023-02-08T01:00:55.490Z,12.93
2023-02-08T01:03:25.074Z,13.68
2023-02-08T01:05:55.140Z,13.85
2023-02-08T01:08:24.468Z,13.65
2023-02-08T01:10:53.420Z,13.05
2023-02-08T01:13:23.552Z,15.35
2023-02-08T01:15:51.876Z,13.63
2023-02-08T01:18:20.002Z,13.77
2023-02-08T01:20:48.265Z,14.25
2023-02-08T01:23:17.829Z,12.70
2023-02-08T01:25:46.058Z,13.32
2023-02-08T01:28:14.263Z,14.25
2023-02-08T01:30:42.891Z,13.77
2023-02-08T01:33:11.331Z,13.70
2023-02-08T01:35:39.581Z,17.05
2023-02-08T01:38:07.830Z,14.68
2023-02-08T01:40:37.682Z,13.52
2023-02-08T01:43:14.647Z,15.27
2023-02-08T01:45:42.871Z,13.40
2023-02-08T01:48:17.490Z,14.98
2023-02-08T01:50:51.689Z,14.80
2023-02-08T01:53:20.951Z,12.77
2023-02-08T01:55:53.930Z,14.18
2023-02-08T01:58:23.457Z,13.98
2023-02-08T02:00:51.758Z,15.32
2023-02-08T02:03:21.841Z,15.30
2023-02-08T02:05:53.801Z,13.70
2023-02-08T02:08:22.090Z,14.80
2023-02-08T02:10:51.745Z,15.15
2023-02-08T02:13:23.294Z,16.50
2023-02-08T02:15:53.150Z,15.50
2023-02-08T02:18:26.180Z,14.23
2023-02-08T02:21:19.162Z,15.00
2023-02-08T02:24:07.630Z,14.18
2023-02-08T02:27:29.347Z,15.27
2023-02-08T02:30:33.188Z,14.38
2023-02-08T02:33:34.269Z,16.08
2023-02-08T02:36:10.545Z,13.20
2023-02-08T02:38:49.596Z,15.63
2023-02-08T02:41:41.311Z,15.23
2023-02-08T02:44:22.406Z,14.52
2023-02-08T02:47:01.305Z,14.82
2023-02-08T02:49:38.433Z,16.17
2023-02-08T02:52:11.599Z,15.02
2023-02-08T02:54:43.463Z,16.33
2023-02-08T02:57:16.952Z,15.05
2023-02-08T02:59:47.024Z,15.48
2023-02-08T03:02:15.745Z,16.90
2023-02-08T03:04:52.538Z,14.98
2023-02-08T03:07:38.267Z,13.85
2023-02-08T03:10:20.689Z,14.77
2023-02-08T03:12:56.380Z,14.38
2023-02-08T03:15:33.324Z,14.00
2023-02-08T03:18:11.568Z,14.65
2023-02-08T03:20:44.364Z,14.88
2023-02-08T03:23:20.801Z,13.95
2023-02-08T03:25:54.916Z,13.38
2023-02-08T03:28:27.014Z,13.98
2023-02-08T03:31:02.761Z,14.63
2023-02-08T03:33:39.417Z,14.32
2023-02-08T03:36:18.679Z,16.25
2023-02-08T03:38:48.836Z,13.23
2023-02-08T03:41:23.974Z,14.27
2023-02-08T03:43:58.220Z,14.88
2023-02-08T03:46:30.408Z,14.70
2023-02-08T03:49:02.890Z,14.52
2023-02-08T03:51:39.141Z,15.80
2023-02-08T03:54:12.213Z,17.25
2023-02-08T03:56:45.949Z,17.50
2023-02-08T03:59:21.580Z,15.88
2023-02-08T04:01:55.440Z,17.95
2023-02-08T04:04:26.032Z,17.60
2023-02-08T04:06:56.144Z,17.33
2023-02-08T04:09:24.496Z,17.42
2023-02-08T04:11:52.641Z,17.50
2023-02-08T04:14:20.856Z,16.70
2023-02-08T04:16:49.814Z,16.85
2023-02-08T04:19:18.029Z,15.73
2023-02-08T04:21:46.127Z,16.08
2023-02-08T04:24:15.744Z,15.88
2023-02-08T04:26:43.969Z,15.90
2023-02-08T04:29:12.202Z,14.98
2023-02-08T04:31:40.526Z,13.98
2023-02-08T04:34:09.011Z,16.50
2023-02-08T04:36:37.171Z,14.00
2023-02-08T04:39:05.413Z,13.40
2023-02-08T04:41:34.956Z,14.35
2023-02-08T04:44:03.194Z,13.90
2023-02-08T04:46:31.492Z,14.88
2023-02-08T04:48:59.800Z,14.27
2023-02-08T04:51:28.255Z,13.90
2023-02-08T04:53:56.451Z,12.77
2023-02-08T04:56:24.653Z,14.02
2023-02-08T04:58:54.251Z,14.40
2023-02-08T05:01:22.489Z,15.38
2023-02-08T05:03:50.736Z,13.98
2023-02-08T05:06:18.850Z,15.02
2023-02-08T05:08:47.114Z,15.85
2023-02-08T05:11:21.276Z,16.05
2023-02-08T05:13:49.643Z,15.18
2023-02-08T05:16:19.885Z,15.77
2023-02-08T05:18:48.086Z,16.65
2023-02-08T05:21:16.290Z,13.10
2023-02-08T05:23:46.626Z,13.50
2023-02-08T05:26:15.223Z,12.15
2023-02-08T05:28:43.429Z,14.48
2023-02-08T05:31:13.071Z,15.90
2023-02-08T05:33:42.870Z,14.23
2023-02-08T05:36:11.401Z,16.05
2023-02-08T05:38:39.693Z,14.45
2023-02-08T05:41:07.885Z,15.13
2023-02-08T05:43:36.157Z,17.23
2023-02-08T05:46:04.483Z,14.23
2023-02-08T05:48:33.603Z,16.10
2023-02-08T05:51:03.174Z,16.23
2023-02-08T05:53:31.967Z,14.10
2023-02-08T05:56:00.413Z,17.77
2023-02-08T05:58:28.900Z,17.33
2023-02-08T06:00:57.482Z,18.38
2023-02-08T06:03:25.738Z,16.17
2023-02-08T06:05:53.870Z,15.40
2023-02-08T06:08:23.480Z,18.05
2023-02-08T06:10:51.691Z,20.15
2023-02-08T06:13:19.880Z,24.23
2023-02-08T06:15:48.153Z,24.95
2023-02-08T06:18:16.756Z,23.00
2023-02-08T06:20:44.910Z,18.60
2023-02-08T06:23:13.226Z,18.73
2023-02-08T06:25:42.837Z,19.98
2023-02-08T06:28:11.214Z,18.15
2023-02-08T06:30:39.909Z,16.85
2023-02-08T06:33:08.279Z,22.13
2023-02-08T06:35:36.470Z,18.95
2023-02-08T06:38:05.361Z,18.65
2023-02-08T06:40:33.580Z,20.50
2023-02-08T06:43:03.135Z,23.50
2023-02-08T06:45:31.284Z,22.33
2023-02-08T06:47:59.574Z,21.63
2023-02-08T06:50:27.771Z,19.33
2023-02-08T06:52:56.140Z,17.67
2023-02-08T06:55:24.411Z,15.98
2023-02-08T06:57:54.927Z,16.60
2023-02-08T07:00:24.770Z,17.88
2023-02-08T07:02:53.520Z,15.60
2023-02-08T07:05:21.740Z,19.30
2023-02-08T07:07:50.024Z,22.08
2023-02-08T07:10:18.278Z,17.40
2023-02-08T07:12:46.442Z,16.52
2023-02-08T07:15:14.646Z,19.13
2023-02-08T07:17:44.386Z,16.88
2023-02-08T07:20:13.634Z,15.35
2023-02-08T07:22:42.733Z,15.50
2023-02-08T07:25:11.522Z,14.35
2023-02-08T07:27:39.678Z,15.80
2023-02-08T07:30:09.092Z,16.45
2023-02-08T07:32:37.380Z,17.10
2023-02-08T07:35:07.698Z,15.90
2023-02-08T07:37:35.967Z,15.85
2023-02-08T07:40:04.298Z,15.95
2023-02-08T07:42:32.522Z,15.38
2023-02-08T07:45:20.538Z,16.10
2023-02-08T07:47:48.749Z,16.70
2023-02-08T07:50:18.603Z,16.38
2023-02-08T07:52:47.554Z,17.77
2023-02-08T07:55:17.191Z,17.25
2023-02-08T07:57:45.502Z,19.08
2023-02-08T08:00:15.196Z,15.65
2023-02-08T08:02:43.789Z,18.75
2023-02-08T08:05:12.661Z,16.35
2023-02-08T08:07:42.245Z,16.08
2023-02-08T08:10:10.664Z,16.48
2023-02-08T08:12:38.970Z,13.35
2023-02-08T08:15:08.288Z,11.15
2023-02-08T08:17:36.506Z,13.48
2023-02-08T08:20:04.897Z,15.18
2023-02-08T08:22:33.443Z,14.18
2023-02-08T08:25:03.030Z,15.18
2023-02-08T08:27:31.524Z,14.82
2023-02-08T08:30:00.321Z,15.38
2023-02-08T08:32:28.706Z,14.90
2023-02-08T08:34:56.875Z,16.08
2023-02-08T08:37:25.142Z,16.33
2023-02-08T08:39:53.318Z,15.68
2023-02-08T08:42:22.993Z,14.57
2023-02-08T08:44:51.313Z,16.25
2023-02-08T08:47:19.709Z,15.23
2023-02-08T08:49:47.977Z,15.13
2023-02-08T08:52:16.747Z,14.35
2023-02-08T08:54:45.049Z,15.55
2023-02-08T08:57:13.328Z,15.60
2023-02-08T08:59:42.935Z,16.20
2023-02-08T09:02:12.979Z,14.07
2023-02-08T09:04:42.171Z,15.32
2023-02-08T09:07:11.231Z,16.60
2023-02-08T09:09:40.908Z,15.90
2023-02-08T09:12:09.199Z,15.80
2023-02-08T09:14:37.472Z,15.40
2023-02-08T09:17:08.269Z,16.10
2023-02-08T09:19:36.458Z,16.23
2023-02-08T09:22:06.829Z,16.60
2023-02-08T09:24:35.085Z,16.88
2023-02-08T09:27:03.424Z,14.57
2023-02-08T09:29:32.849Z,14.40
2023-02-08T09:32:01.595Z,12.98
2023-02-08T09:34:31.278Z,13.85
2023-02-08T09:36:59.449Z,11.75
2023-02-08T09:39:27.655Z,12.25
2023-02-08T09:42:22.732Z,11.80
2023-02-08T09:45:03.936Z,14.05
2023-02-08T09:47:36.341Z,12.00
2023-02-08T09:50:14.527Z,11.60
2023-02-08T09:52:46.807Z,11.07
2023-02-08T09:55:26.064Z,10.95
2023-02-08T09:57:57.428Z,11.40
2023-02-08T10:00:32.848Z,13.10
2023-02-08T10:03:03.578Z,10.32
2023-02-08T10:05:33.751Z,12.77
2023-02-08T10:08:02.862Z,12.07
2023-02-08T10:10:43.923Z,11.68
2023-02-08T10:13:40.341Z,10.45
2023-02-08T10:16:19.988Z,12.30
2023-02-08T10:18:55.259Z,9.40
2023-02-08T10:21:43.397Z,8.02
2023-02-08T10:24:37.115Z,10.07
2023-02-08T10:27:15.662Z,9.10
2023-02-08T10:30:04.226Z,9.15
2023-02-08T10:32:45.530Z,10.25
2023-02-08T10:35:16.116Z,10.38
2023-02-08T10:37:47.366Z,9.88
2023-02-08T10:40:31.768Z,10.85
2023-02-08T10:43:10.904Z,10.80
2023-02-08T10:45:48.724Z,10.82
2023-02-08T10:48:25.651Z,11.32
2023-02-08T10:50:53.857Z,11.02
2023-02-08T10:53:23.562Z,9.13
2023-02-08T10:55:51.869Z,10.45
2023-02-08T10:58:22.271Z,10.38
2023-02-08T11:00:51.958Z,9.00
2023-02-08T11:03:23.702Z,9.77
2023-02-08T11:05:52.631Z,10.30
2023-02-08T11:08:23.931Z,10.30
2023-02-08T11:11:01.294Z,10.60
2023-02-08T11:13:36.560Z,11.70
2023-02-08T11:16:07.235Z,10.63
2023-02-08T11:18:37.830Z,8.77
2023-02-08T11:21:10.597Z,9.65
2023-02-08T11:23:43.578Z,9.90
2023-02-08T11:26:18.502Z,9.40
2023-02-08T11:29:00.962Z,9.63
2023-02-08T11:31:29.583Z,9.48
2023-02-08T11:34:03.406Z,11.15
2023-02-08T11:36:34.094Z,10.40
2023-02-08T11:39:16.636Z,11.73
2023-02-08T11:41:45.823Z,10.82
2023-02-08T11:44:27.285Z,9.85
2023-02-08T11:46:57.456Z,11.50
2023-02-08T11:49:28.598Z,9.35
2023-02-08T11:51:57.361Z,8.70
2023-02-08T11:54:41.260Z,9.35
2023-02-08T11:57:15.937Z,8.73
2023-02-08T11:59:44.472Z,8.38
2023-02-08T12:02:37.743Z,8.80
2023-02-08T12:05:14.084Z,9.57
2023-02-08T12:08:00.808Z,9.20
2023-02-08T12:10:47.939Z,8.45
2023-02-08T12:13:42.084Z,9.07
2023-02-08T12:16:25.651Z,10.23
2023-02-08T12:19:11.930Z,10.68
2023-02-08T12:21:44.610Z,9.55
2023-02-08T12:24:22.492Z,9.10
2023-02-08T12:27:17.822Z,7.25
2023-02-08T12:29:54.426Z,8.65
2023-02-08T12:32:53.884Z,7.55
2023-02-08T12:36:04.079Z,7.68
2023-02-08T12:39:17.751Z,7.10
2023-02-08T12:41:57.673Z,6.55
2023-02-08T12:44:37.160Z,6.80
2023-02-08T12:47:17.574Z,6.22
2023-02-08T12:50:04.225Z,5.60
2023-02-08T12:52:39.108Z,7.18
2023-02-08T12:55:18.237Z,5.82
2023-02-08T12:57:50.653Z,6.15
2023-02-08T13:00:24.603Z,6.55
2023-02-08T13:03:00.487Z,6.18
2023-02-08T13:05:34.541Z,5.80
2023-02-08T13:08:09.885Z,6.63
2023-02-08T13:10:41.619Z,5.43
2023-02-08T13:13:17.456Z,6.00
2023-02-08T13:15:53.132Z,6.10
2023-02-08T13:18:24.643Z,6.25
2023-02-08T13:20:54.217Z,8.40
2023-02-08T13:23:27.517Z,7.75
2023-02-08T13:25:59.066Z,6.80
2023-02-08T13:28:28.370Z,6.80
2023-02-08T13:31:03.002Z,7.45
2023-02-08T13:33:37.554Z,7.18
2023-02-08T13:36:06.601Z,6.18
2023-02-08T13:38:37.643Z,7.82
2023-02-08T13:41:09.017Z,7.43
2023-02-08T13:43:41.659Z,7.35
2023-02-08T13:46:12.781Z,7.85
2023-02-08T13:48:47.089Z,7.78
2023-02-08T13:51:55.087Z,7.80
2023-02-08T13:54:23.266Z,8.02
2023-02-08T13:56:53.024Z,7.75
2023-02-08T13:59:41.944Z,7.65
2023-02-08T14:02:31.002Z,6.95
2023-02-08T14:05:36.548Z,7.55
2023-02-08T14:08:07.354Z,7.78
2023-02-08T14:10:52.298Z,8.77
2023-02-08T14:13:29.426Z,7.07
2023-02-08T14:16:27.523Z,8.25
2023-02-08T14:18:58.749Z,8.15
2023-02-08T14:21:38.107Z,7.95
2023-02-08T14:24:09.069Z,8.02
2023-02-08T14:26:38.218Z,8.15
2023-02-08T14:29:07.972Z,7.57
2023-02-08T14:31:44.300Z,8.82
2023-02-08T14:34:25.419Z,8.15
2023-02-08T14:37:02.618Z,6.25
2023-02-08T14:39:33.526Z,7.75
2023-02-08T14:42:05.565Z,7.85
2023-02-08T14:45:06.376Z,8.40
2023-02-08T14:47:56.875Z,8.65
2023-02-08T14:50:33.223Z,7.70
2023-02-08T14:53:16.923Z,9.25
2023-02-08T14:55:49.722Z,8.30
2023-02-08T14:58:27.157Z,8.40
2023-02-08T15:00:57.575Z,7.97
2023-02-08T15:03:28.672Z,8.13
2023-02-08T15:06:33.522Z,8.20
2023-02-08T15:09:03.182Z,7.63
2023-02-08T15:11:34.392Z,8.85
2023-02-08T15:14:05.935Z,10.15
2023-02-08T15:16:37.999Z,8.30
2023-02-08T15:19:08.825Z,10.25
2023-02-08T15:21:38.831Z,8.52
2023-02-08T15:24:16.586Z,7.85
2023-02-08T15:26:46.936Z,8.52
2023-02-08T15:29:30.090Z,8.55
2023-02-08T15:32:04.260Z,8.32
2023-02-08T15:34:33.682Z,9.15
2023-02-08T15:37:02.082Z,8.23
2023-02-08T15:39:35.853Z,6.97
2023-02-08T15:42:04.189Z,8.80
2023-02-08T15:44:34.919Z,9.02
2023-02-08T15:47:05.368Z,8.32
2023-02-08T15:49:37.638Z,7.65
2023-02-08T15:52:07.293Z,7.80
2023-02-08T15:54:36.988Z,10.90
2023-02-08T15:57:09.352Z,8.98
2023-02-08T15:59:41.623Z,7.63
2023-02-08T16:02:23.808Z,9.63
2023-02-08T16:04:52.287Z,7.93
2023-02-08T16:07:26.998Z,8.15
2023-02-08T16:09:58.236Z,7.50
2023-02-08T16:12:28.953Z,7.70
2023-02-08T16:14:57.789Z,7.57
2023-02-08T16:17:43.401Z,7.93
2023-02-08T16:20:29.679Z,7.28
2023-02-08T16:23:01.472Z,7.82
2023-02-08T16:25:49.066Z,7.50
2023-02-08T16:28:28.795Z,8.13
2023-02-08T16:30:59.235Z,8.70
2023-02-08T16:33:28.451Z,8.32
2023-02-08T16:36:01.893Z,8.93
2023-02-08T16:38:32.406Z,10.85
2023-02-08T16:41:12.295Z,11.23
2023-02-08T16:43:43.928Z,10.52
2023-02-08T16:46:25.361Z,10.75
2023-02-08T16:48:55.464Z,10.60
2023-02-08T16:51:26.285Z,10.10
2023-02-08T16:53:58.023Z,11.40
2023-02-08T16:56:28.150Z,11.77
2023-02-08T16:58:56.440Z,13.90
2023-02-08T17:01:25.118Z,12.93
2023-02-08T17:03:53.882Z,12.32
2023-02-08T17:06:32.644Z,11.38
2023-02-08T17:09:02.487Z,11.35
2023-02-08T17:11:33.136Z,13.63
2023-02-08T17:14:01.557Z,12.75
2023-02-08T17:16:31.759Z,11.30
2023-02-08T17:19:00.843Z,11.23
2023-02-08T17:21:29.548Z,12.35
2023-02-08T17:23:58.423Z,12.23
2023-02-08T17:26:28.998Z,12.43
2023-02-08T17:29:00.024Z,11.77
2023-02-08T17:31:29.698Z,11.80
2023-02-08T17:34:04.326Z,11.95
2023-02-08T17:36:33.554Z,11.70
2023-02-08T17:39:02.073Z,11.85
2023-02-08T17:41:30.468Z,12.73
2023-02-08T17:44:00.208Z,12.20
2023-02-08T17:46:31.283Z,13.50
2023-02-08T17:49:01.817Z,11.45
2023-02-08T17:51:30.704Z,10.55
2023-02-08T17:53:58.927Z,11.65
2023-02-08T17:56:29.448Z,10.07
2023-02-08T17:59:00.916Z,8.43
2023-02-08T18:01:29.371Z,9.93
2023-02-08T18:03:58.145Z,10.38
2023-02-08T18:06:26.398Z,9.27
2023-02-08T18:08:55.955Z,10.35
2023-02-08T18:11:24.554Z,9.52
2023-02-08T18:13:54.811Z,9.45
2023-02-08T18:16:26.666Z,11.20
2023-02-08T18:18:56.800Z,10.43
2023-02-08T18:21:26.001Z,11.25
2023-02-08T18:23:55.371Z,12.13
2023-02-08T18:26:25.974Z,12.38
2023-02-08T18:28:54.777Z,12.40
2023-02-08T18:31:25.429Z,12.50
2023-02-08T18:33:53.989Z,14.32
2023-02-08T18:36:23.273Z,16.05
2023-02-08T18:38:55.626Z,16.48
2023-02-08T18:41:26.829Z,15.90
2023-02-08T18:43:56.299Z,17.67
2023-02-08T18:46:27.625Z,18.25
2023-02-08T18:48:56.794Z,18.02
2023-02-08T18:51:26.664Z,18.33
2023-02-08T18:53:56.562Z,19.85
2023-02-08T18:56:27.275Z,20.38
2023-02-08T18:58:58.786Z,21.17
2023-02-08T19:01:28.432Z,19.17
2023-02-08T19:03:57.004Z,18.55
2023-02-08T19:06:27.732Z,18.48
2023-02-08T19:08:58.408Z,20.67
2023-02-08T19:11:28.776Z,20.85
2023-02-08T19:13:58.966Z,20.75
2023-02-08T19:16:30.206Z,21.00
2023-02-08T19:18:59.692Z,19.77
2023-02-08T19:21:28.421Z,19.88
2023-02-08T19:23:58.205Z,16.30
2023-02-08T19:26:28.437Z,14.50
2023-02-08T19:28:59.302Z,13.00
2023-02-08T19:31:30.448Z,11.85
2023-02-08T19:34:00.728Z,12.25
2023-02-08T19:36:30.708Z,10.95
2023-02-08T19:39:00.299Z,10.68
2023-02-08T19:41:31.120Z,10.25
2023-02-08T19:43:59.892Z,11.43
2023-02-08T19:46:29.597Z,12.85
2023-02-08T19:49:00.256Z,13.20
2023-02-08T19:51:29.051Z,12.77
2023-02-08T19:53:58.325Z,13.70
2023-02-08T19:56:26.513Z,14.65
2023-02-08T19:58:55.171Z,14.05
2023-02-08T20:01:24.169Z,14.43
2023-02-08T20:03:54.910Z,14.45
2023-02-08T20:06:26.484Z,14.52
2023-02-08T20:08:55.375Z,14.18
2023-02-08T20:11:26.139Z,14.55
2023-02-08T20:13:55.566Z,13.38
2023-02-08T20:16:24.409Z,12.15
2023-02-08T20:18:54.266Z,12.00
2023-02-08T20:21:22.548Z,12.88
2023-02-08T20:23:51.286Z,12.65
2023-02-08T20:26:21.711Z,12.68
2023-02-08T20:28:52.691Z,10.73
2023-02-08T20:31:22.538Z,11.18
2023-02-08T20:33:51.594Z,10.68
2023-02-08T20:36:24.715Z,11.57
2023-02-08T20:38:54.538Z,12.55
2023-02-08T20:41:24.476Z,14.07
2023-02-08T20:43:53.747Z,15.52
2023-02-08T20:46:25.945Z,15.43
2023-02-08T20:48:56.922Z,17.30
2023-02-08T20:51:27.252Z,16.88
2023-02-08T20:53:56.434Z,18.67
2023-02-08T20:56:26.762Z,19.75
2023-02-08T20:58:55.345Z,18.65
2023-02-08T21:01:26.644Z,16.38
2023-02-08T21:03:55.848Z,17.95
2023-02-08T21:06:29.444Z,15.00
2023-02-08T21:08:58.799Z,16.17
2023-02-08T21:11:28.902Z,15.02
2023-02-08T21:13:58.302Z,15.20
2023-02-08T21:16:27.261Z,15.13
2023-02-08T21:18:58.292Z,12.65
2023-02-08T21:21:28.958Z,13.05
2023-02-08T21:23:57.954Z,13.80
2023-02-08T21:26:27.256Z,10.90
2023-02-08T21:28:56.602Z,11.55
2023-02-08T21:31:26.359Z,10.50
2023-02-08T21:33:54.993Z,9.18
2023-02-08T21:36:25.003Z,10.43
2023-02-08T21:38:54.675Z,10.02
2023-02-08T21:41:25.566Z,9.38
2023-02-08T21:43:55.618Z,9.77
2023-02-08T21:46:25.828Z,10.55
2023-02-08T21:49:11.982Z,10.73
2023-02-08T21:51:57.835Z,11.32
2023-02-08T21:54:45.755Z,12.02
2023-02-08T21:57:19.781Z,10.23
2023-02-08T21:59:49.195Z,12.02
2023-02-08T22:02:23.441Z,12.20
2023-02-08T22:04:52.902Z,13.15
2023-02-08T22:07:21.337Z,13.85
2023-02-08T22:09:52.057Z,15.55
2023-02-08T22:12:22.434Z,17.30
2023-02-08T22:14:51.679Z,18.30
2023-02-08T22:17:20.071Z,18.65
2023-02-08T22:19:48.791Z,16.27
2023-02-08T22:22:17.028Z,16.77
2023-02-08T22:24:45.285Z,17.25
2023-02-08T22:27:14.961Z,16.83
2023-02-08T22:29:43.169Z,17.88
2023-02-08T22:32:12.664Z,17.52
2023-02-08T22:34:40.908Z,17.15
2023-02-08T22:37:09.359Z,17.48
2023-02-08T22:39:37.855Z,21.95
2023-02-08T22:42:08.803Z,17.27
2023-02-08T22:44:39.347Z,15.77
2023-02-08T22:47:09.435Z,17.27
2023-02-08T22:49:38.399Z,12.55
2023-02-08T22:52:08.226Z,14.57
2023-02-08T22:54:36.881Z,14.00
2023-02-08T22:57:06.049Z,11.80
2023-02-08T22:59:34.820Z,10.73
2023-02-08T23:02:05.116Z,10.35
2023-02-08T23:04:33.496Z,11.38
2023-02-08T23:07:01.749Z,10.05
2023-02-08T23:09:29.922Z,9.40
2023-02-08T23:11:58.172Z,9.80
2023-02-08T23:14:26.402Z,9.15
2023-02-08T23:16:54.581Z,9.25
2023-02-08T23:19:24.903Z,8.38
2023-02-08T23:21:53.590Z,8.43
2023-02-08T23:24:21.774Z,7.97
2023-02-08T23:26:49.977Z,8.18
2023-02-08T23:29:18.216Z,6.35
2023-02-08T23:31:46.534Z,6.75
2023-02-08T23:34:14.800Z,8.85
2023-02-08T23:36:44.841Z,8.15
2023-02-08T23:39:13.046Z,9.35
2023-02-08T23:41:41.272Z,8.43
2023-02-08T23:44:09.429Z,10.20
2023-02-08T23:46:37.676Z,10.85
2023-02-08T23:49:05.926Z,10.40
2023-02-08T23:51:34.193Z,12.05
2023-02-08T23:54:03.694Z,13.23
2023-02-08T23:56:33.063Z,12.95
2023-02-08T23:59:01.578Z,13.20
